sensor_id;sensor_type;location;lat;lon;timestamp;pressure;altitude;pressure_sealevel;temperature;humidity
51081;BME280;37130;55.670;37.596;2022-10-15T00:00:38;100260.50;;;7.72;67.40
51081;BME280;37130;55.670;37.596;2022-10-15T00:03:06;100263.09;;;7.74;67.67
51081;BME280;37130;55.670;37.596;2022-10-15T00:05:37;100264.00;;;7.73;67.54
51081;BME280;37130;55.670;37.596;2022-10-15T00:08:04;100264.00;;;7.73;67.38
51081;BME280;37130;55.670;37.596;2022-10-15T00:10:31;100263.94;;;7.76;67.54
51081;BME280;37130;55.670;37.596;2022-10-15T00:12:58;100263.03;;;7.77;67.14
51081;BME280;37130;55.670;37.596;2022-10-15T00:15:25;100267.34;;;7.79;67.04
51081;BME280;37130;55.670;37.596;2022-10-15T00:17:52;100264.75;;;7.78;67.45
51081;BME280;37130;55.670;37.596;2022-10-15T00:20:19;100268.22;;;7.80;67.05
51081;BME280;37130;55.670;37.596;2022-10-15T00:22:47;100264.59;;;7.84;67.24
51081;BME280;37130;55.670;37.596;2022-10-15T00:25:14;100152.94;;;7.18;67.23
51081;BME280;37130;55.670;37.596;2022-10-15T00:27:41;100265.38;;;7.87;67.31
51081;BME280;37130;55.670;37.596;2022-10-15T00:30:09;100175.38;;;7.33;67.29
51081;BME280;37130;55.670;37.596;2022-10-15T00:32:36;100271.44;;;7.91;67.11
51081;BME280;37130;55.670;37.596;2022-10-15T00:35:05;100258.25;;;7.91;67.18
51081;BME280;37130;55.670;37.596;2022-10-15T00:37:32;100252.09;;;7.92;67.33
51081;BME280;37130;55.670;37.596;2022-10-15T00:39:59;100252.97;;;7.91;67.23
51081;BME280;37130;55.670;37.596;2022-10-15T00:42:31;100261.72;;;7.93;67.08
51081;BME280;37130;55.670;37.596;2022-10-15T00:44:59;100255.59;;;7.93;67.13
51081;BME280;37130;55.670;37.596;2022-10-15T00:47:33;100252.94;;;7.93;67.20
51081;BME280;37130;55.670;37.596;2022-10-15T00:50:14;100263.50;;;7.93;66.97
51081;BME280;37130;55.670;37.596;2022-10-15T00:55:29;100260.84;;;7.94;66.71
51081;BME280;37130;55.670;37.596;2022-10-15T00:57:58;100254.63;;;7.95;66.87
51081;BME280;37130;55.670;37.596;2022-10-15T01:00:26;100258.09;;;7.97;66.44
51081;BME280;37130;55.670;37.596;2022-10-15T01:02:55;100253.69;;;7.98;66.67
51081;BME280;37130;55.670;37.596;2022-10-15T01:05:22;100258.09;;;7.97;66.42
51081;BME280;37130;55.670;37.596;2022-10-15T01:07:50;100259.00;;;7.96;66.41
51081;BME280;37130;55.670;37.596;2022-10-15T01:10:17;100257.19;;;7.98;66.29
51081;BME280;37130;55.670;37.596;2022-10-15T01:15:21;100254.41;;;8.04;66.28
51081;BME280;37130;55.670;37.596;2022-10-15T01:17:54;100260.47;;;8.06;66.29
51081;BME280;37130;55.670;37.596;2022-10-15T01:31:12;100271.78;;;8.11;65.79
51081;BME280;37130;55.670;37.596;2022-10-15T01:33:48;100271.78;;;8.11;65.89
51081;BME280;37130;55.670;37.596;2022-10-15T01:36:41;100274.28;;;8.18;65.86
51081;BME280;37130;55.670;37.596;2022-10-15T01:41:51;100281.28;;;8.19;65.80
51081;BME280;37130;55.670;37.596;2022-10-15T01:44:22;100280.34;;;8.20;65.98
51081;BME280;37130;55.670;37.596;2022-10-15T01:47:11;100274.13;;;8.22;66.13
51081;BME280;37130;55.670;37.596;2022-10-15T01:49:41;100285.56;;;8.23;65.60
51081;BME280;37130;55.670;37.596;2022-10-15T01:52:23;100278.53;;;8.22;65.69
51081;BME280;37130;55.670;37.596;2022-10-15T01:54:51;100281.19;;;8.22;65.74
51081;BME280;37130;55.670;37.596;2022-10-15T01:57:21;100275.88;;;8.23;65.85
51081;BME280;37130;55.670;37.596;2022-10-15T01:59:51;100276.75;;;8.24;65.74
51081;BME280;37130;55.670;37.596;2022-10-15T02:02:22;100275.03;;;8.23;65.59
51081;BME280;37130;55.670;37.596;2022-10-15T02:04:49;100278.53;;;8.23;65.77
51081;BME280;37130;55.670;37.596;2022-10-15T02:07:29;100289.97;;;8.22;65.78
51081;BME280;37130;55.670;37.596;2022-10-15T02:17:42;100290.88;;;8.21;65.68
51081;BME280;37130;55.670;37.596;2022-10-15T02:20:13;100291.81;;;8.20;65.84
51081;BME280;37130;55.670;37.596;2022-10-15T02:25:19;100292.66;;;8.21;65.49
51081;BME280;37130;55.670;37.596;2022-10-15T02:27:48;100300.56;;;8.21;65.53
51081;BME280;37130;55.670;37.596;2022-10-15T02:30:17;100298.81;;;8.20;65.60
51081;BME280;37130;55.670;37.596;2022-10-15T02:32:45;100298.78;;;8.23;65.32
51081;BME280;37130;55.670;37.596;2022-10-15T02:35:19;100296.03;;;8.26;65.45
51081;BME280;37130;55.670;37.596;2022-10-15T02:37:48;100300.38;;;8.28;65.06
51081;BME280;37130;55.670;37.596;2022-10-15T02:40:20;100297.72;;;8.28;65.61
51081;BME280;37130;55.670;37.596;2022-10-15T02:42:49;100299.56;;;8.25;65.35
51081;BME280;37130;55.670;37.596;2022-10-15T02:45:16;100297.00;;;8.23;65.20
51081;BME280;37130;55.670;37.596;2022-10-15T02:47:43;100301.25;;;8.27;65.16
51081;BME280;37130;55.670;37.596;2022-10-15T02:50:10;100308.38;;;8.25;65.22
51081;BME280;37130;55.670;37.596;2022-10-15T02:52:38;100303.13;;;8.24;65.30
51081;BME280;37130;55.670;37.596;2022-10-15T02:55:06;100313.66;;;8.25;65.34
51081;BME280;37130;55.670;37.596;2022-10-15T02:57:33;100314.47;;;8.27;65.55
51081;BME280;37130;55.670;37.596;2022-10-15T03:00:02;100311.78;;;8.29;65.08
51081;BME280;37130;55.670;37.596;2022-10-15T03:02:29;100310.06;;;8.28;65.00
51081;BME280;37130;55.670;37.596;2022-10-15T03:04:57;100310.09;;;8.26;64.95
51081;BME280;37130;55.670;37.596;2022-10-15T03:07:24;100308.44;;;8.22;64.89
51081;BME280;37130;55.670;37.596;2022-10-15T03:09:52;100314.59;;;8.23;64.97
51081;BME280;37130;55.670;37.596;2022-10-15T03:12:20;100318.97;;;8.24;64.75
51081;BME280;37130;55.670;37.596;2022-10-15T03:14:50;100323.31;;;8.25;65.25
51081;BME280;37130;55.670;37.596;2022-10-15T03:17:17;100321.50;;;8.27;65.09
51081;BME280;37130;55.670;37.596;2022-10-15T03:19:45;100325.94;;;8.26;65.10
51081;BME280;37130;55.670;37.596;2022-10-15T03:22:12;100321.59;;;8.24;65.13
51081;BME280;37130;55.670;37.596;2022-10-15T03:24:48;100320.75;;;8.22;65.02
51081;BME280;37130;55.670;37.596;2022-10-15T03:27:21;100325.16;;;8.23;64.92
51081;BME280;37130;55.670;37.596;2022-10-15T03:29:49;100321.63;;;8.22;65.43
51081;BME280;37130;55.670;37.596;2022-10-15T03:32:16;100323.38;;;8.23;64.91
51081;BME280;37130;55.670;37.596;2022-10-15T03:34:43;100179.59;;;7.41;64.90
51081;BME280;37130;55.670;37.596;2022-10-15T03:37:13;100317.16;;;8.26;65.10
51081;BME280;37130;55.670;37.596;2022-10-15T03:39:40;100316.28;;;8.25;65.08
51081;BME280;37130;55.670;37.596;2022-10-15T03:42:08;100323.31;;;8.25;65.09
51081;BME280;37130;55.670;37.596;2022-10-15T03:44:43;100318.97;;;8.24;65.10
51081;BME280;37130;55.670;37.596;2022-10-15T03:47:14;100321.59;;;8.24;64.89
51081;BME280;37130;55.670;37.596;2022-10-15T03:49:44;100319.81;;;8.24;64.91
51081;BME280;37130;55.670;37.596;2022-10-15T03:52:12;100323.28;;;8.26;64.80
51081;BME280;37130;55.670;37.596;2022-10-15T03:54:40;100328.56;;;8.26;65.01
51081;BME280;37130;55.670;37.596;2022-10-15T03:57:08;100326.78;;;8.27;64.81
51081;BME280;37130;55.670;37.596;2022-10-15T03:59:42;100325.00;;;8.27;64.86
51081;BME280;37130;55.670;37.596;2022-10-15T04:02:10;100326.69;;;8.30;64.89
51081;BME280;37130;55.670;37.596;2022-10-15T04:04:37;100324.91;;;8.30;64.75
51081;BME280;37130;55.670;37.596;2022-10-15T04:07:04;100320.75;;;8.23;64.64
51081;BME280;37130;55.670;37.596;2022-10-15T04:09:32;100327.81;;;8.21;64.90
51081;BME280;37130;55.670;37.596;2022-10-15T04:12:18;100326.91;;;8.22;64.79
51081;BME280;37130;55.670;37.596;2022-10-15T04:14:45;100329.53;;;8.22;64.91
51081;BME280;37130;55.670;37.596;2022-10-15T04:17:13;100326.03;;;8.23;64.81
51081;BME280;37130;55.670;37.596;2022-10-15T04:19:44;100327.78;;;8.23;64.79
51081;BME280;37130;55.670;37.596;2022-10-15T04:22:12;100333.13;;;8.20;64.88
51081;BME280;37130;55.670;37.596;2022-10-15T04:24:53;100327.91;;;8.18;64.82
51081;BME280;37130;55.670;37.596;2022-10-15T04:27:26;100330.66;;;8.13;64.64
51081;BME280;37130;55.670;37.596;2022-10-15T04:30:02;100329.81;;;8.11;64.75
51081;BME280;37130;55.670;37.596;2022-10-15T04:32:30;100335.06;;;8.13;64.60
51081;BME280;37130;55.670;37.596;2022-10-15T04:34:57;100331.56;;;8.12;64.64
51081;BME280;37130;55.670;37.596;2022-10-15T04:37:43;100331.59;;;8.11;64.37
51081;BME280;37130;55.670;37.596;2022-10-15T04:40:10;100328.09;;;8.10;64.64
51081;BME280;37130;55.670;37.596;2022-10-15T04:42:38;100335.09;;;8.11;64.31
51081;BME280;37130;55.670;37.596;2022-10-15T04:45:05;100334.22;;;8.12;64.63
51081;BME280;37130;55.670;37.596;2022-10-15T04:47:33;100337.75;;;8.11;64.41
51081;BME280;37130;55.670;37.596;2022-10-15T04:50:06;100335.09;;;8.11;64.64
51081;BME280;37130;55.670;37.596;2022-10-15T04:52:59;100334.16;;;8.14;64.52
51081;BME280;37130;55.670;37.596;2022-10-15T04:55:32;100340.19;;;8.19;64.56
51081;BME280;37130;55.670;37.596;2022-10-15T04:58:00;100347.16;;;8.22;64.47
51081;BME280;37130;55.670;37.596;2022-10-15T05:00:29;100345.44;;;8.21;64.44
51081;BME280;37130;55.670;37.596;2022-10-15T05:03:21;100348.91;;;8.23;64.44
51081;BME280;37130;55.670;37.596;2022-10-15T05:05:58;100340.06;;;8.24;64.29
51081;BME280;37130;55.670;37.596;2022-10-15T05:08:27;100345.25;;;8.28;64.57
51081;BME280;37130;55.670;37.596;2022-10-15T05:11:12;100354.69;;;8.35;64.12
51081;BME280;37130;55.670;37.596;2022-10-15T05:13:40;100356.28;;;8.44;64.09
51081;BME280;37130;55.670;37.596;2022-10-15T05:16:12;100356.09;;;8.52;64.13
51081;BME280;37130;55.670;37.596;2022-10-15T05:18:40;100354.97;;;8.59;64.62
51081;BME280;37130;55.670;37.596;2022-10-15T05:21:07;100357.47;;;8.65;64.14
51081;BME280;37130;55.670;37.596;2022-10-15T05:23:35;100357.34;;;8.70;64.64
51081;BME280;37130;55.670;37.596;2022-10-15T05:26:37;100357.13;;;8.77;64.18
51081;BME280;37130;55.670;37.596;2022-10-15T05:29:04;100360.47;;;8.84;63.71
51081;BME280;37130;55.670;37.596;2022-10-15T05:31:32;100361.28;;;8.86;64.03
51081;BME280;37130;55.670;37.596;2022-10-15T05:34:12;100362.28;;;8.82;64.21
51081;BME280;37130;55.670;37.596;2022-10-15T05:36:46;100363.06;;;8.86;63.78
51081;BME280;37130;55.670;37.596;2022-10-15T05:39:14;100365.56;;;8.90;63.62
51081;BME280;37130;55.670;37.596;2022-10-15T05:41:43;100369.78;;;8.97;63.87
51081;BME280;37130;55.670;37.596;2022-10-15T05:44:10;100368.69;;;9.05;63.93
51081;BME280;37130;55.670;37.596;2022-10-15T05:46:37;100372.00;;;9.11;63.64
51081;BME280;37130;55.670;37.596;2022-10-15T05:49:04;100357.69;;;9.20;63.66
51081;BME280;37130;55.670;37.596;2022-10-15T05:51:43;100360.97;;;9.27;64.42
51081;BME280;37130;55.670;37.596;2022-10-15T05:54:17;100364.50;;;9.27;63.92
51081;BME280;37130;55.670;37.596;2022-10-15T05:56:44;100369.72;;;9.30;63.55
51081;BME280;37130;55.670;37.596;2022-10-15T05:59:11;100373.94;;;9.36;63.06
51081;BME280;37130;55.670;37.596;2022-10-15T06:01:39;100375.66;;;9.37;63.40
51081;BME280;37130;55.670;37.596;2022-10-15T06:04:06;100378.28;;;9.38;63.37
51081;BME280;37130;55.670;37.596;2022-10-15T06:06:33;100375.56;;;9.40;63.16
51081;BME280;37130;55.670;37.596;2022-10-15T06:09:00;100379.03;;;9.42;62.80
51081;BME280;37130;55.670;37.596;2022-10-15T06:11:27;100385.03;;;9.47;63.14
51081;BME280;37130;55.670;37.596;2022-10-15T06:13:55;100381.41;;;9.51;63.42
51081;BME280;37130;55.670;37.596;2022-10-15T06:16:22;100384.84;;;9.53;62.70
51081;BME280;37130;55.670;37.596;2022-10-15T06:18:50;100379.53;;;9.55;62.83
51081;BME280;37130;55.670;37.596;2022-10-15T06:21:17;100379.72;;;9.49;63.00
51081;BME280;37130;55.670;37.596;2022-10-15T06:23:44;100383.22;;;9.49;63.04
51081;BME280;37130;55.670;37.596;2022-10-15T06:26:11;100391.09;;;9.51;63.01
51081;BME280;37130;55.670;37.596;2022-10-15T06:28:40;100371.59;;;9.55;62.45
51081;BME280;37130;55.670;37.596;2022-10-15T06:31:07;100376.75;;;9.59;62.47
51081;BME280;37130;55.670;37.596;2022-10-15T06:33:34;100373.16;;;9.62;62.97
51081;BME280;37130;55.670;37.596;2022-10-15T06:36:02;100373.25;;;9.59;62.48
51081;BME280;37130;55.670;37.596;2022-10-15T06:38:30;100377.63;;;9.58;63.02
51081;BME280;37130;55.670;37.596;2022-10-15T06:40:57;100377.63;;;9.58;62.43
51081;BME280;37130;55.670;37.596;2022-10-15T06:43:24;100375.69;;;9.65;62.79
51081;BME280;37130;55.670;37.596;2022-10-15T06:45:57;100378.81;;;9.78;62.65
51081;BME280;37130;55.670;37.596;2022-10-15T06:48:24;100386.50;;;9.85;62.92
51081;BME280;37130;55.670;37.596;2022-10-15T06:50:51;100389.88;;;9.91;63.04
51081;BME280;37130;55.670;37.596;2022-10-15T06:53:18;100391.59;;;9.92;62.26
51081;BME280;37130;55.670;37.596;2022-10-15T06:55:45;100290.22;;;9.36;62.74
51081;BME280;37130;55.670;37.596;2022-10-15T06:58:12;100388.91;;;9.93;63.09
51081;BME280;37130;55.670;37.596;2022-10-15T07:00:39;100391.56;;;9.93;62.70
51081;BME280;37130;55.670;37.596;2022-10-15T07:03:06;100397.63;;;9.95;62.97
51081;BME280;37130;55.670;37.596;2022-10-15T07:05:34;100390.38;;;10.02;62.86
51081;BME280;37130;55.670;37.596;2022-10-15T07:08:01;100391.94;;;10.07;62.20
51081;BME280;37130;55.670;37.596;2022-10-15T07:10:28;100389.31;;;10.07;61.60
51081;BME280;37130;55.670;37.596;2022-10-15T07:12:58;100396.38;;;10.07;61.75
51081;BME280;37130;55.670;37.596;2022-10-15T07:15:25;100393.75;;;10.07;62.08
51081;BME280;37130;55.670;37.596;2022-10-15T07:17:53;100388.50;;;10.05;61.84
51081;BME280;37130;55.670;37.596;2022-10-15T07:20:27;100398.44;;;9.99;62.04
51081;BME280;37130;55.670;37.596;2022-10-15T07:22:58;100402.84;;;9.98;62.16
51081;BME280;37130;55.670;37.596;2022-10-15T07:25:29;100407.22;;;9.99;62.10
51081;BME280;37130;55.670;37.596;2022-10-15T07:27:56;100407.19;;;10.01;61.25
51081;BME280;37130;55.670;37.596;2022-10-15T07:30:24;100410.53;;;10.06;61.06
51081;BME280;37130;55.670;37.596;2022-10-15T07:32:57;100407.69;;;10.12;61.28
51081;BME280;37130;55.670;37.596;2022-10-15T07:35:25;100406.50;;;10.21;61.55
51081;BME280;37130;55.670;37.596;2022-10-15T07:37:53;100403.72;;;10.25;61.05
51081;BME280;37130;55.670;37.596;2022-10-15T07:40:20;100406.25;;;10.30;61.03
51081;BME280;37130;55.670;37.596;2022-10-15T07:42:57;100413.16;;;10.34;60.73
51081;BME280;37130;55.670;37.596;2022-10-15T07:45:30;100411.22;;;10.39;60.88
51081;BME280;37130;55.670;37.596;2022-10-15T07:47:57;100419.13;;;10.41;61.12
51081;BME280;37130;55.670;37.596;2022-10-15T07:50:24;100412.97;;;10.40;60.69
51081;BME280;37130;55.670;37.596;2022-10-15T07:52:59;100420.00;;;10.41;60.99
51081;BME280;37130;55.670;37.596;2022-10-15T07:55:26;100420.81;;;10.43;60.46
51081;BME280;37130;55.670;37.596;2022-10-15T07:57:55;100423.31;;;10.48;60.31
51081;BME280;37130;55.670;37.596;2022-10-15T08:00:22;100426.81;;;10.48;60.82
51081;BME280;37130;55.670;37.596;2022-10-15T08:02:49;100425.75;;;10.54;60.61
51081;BME280;37130;55.670;37.596;2022-10-15T08:05:18;100417.78;;;10.54;59.48
51081;BME280;37130;55.670;37.596;2022-10-15T08:07:45;100419.47;;;10.57;60.04
51081;BME280;37130;55.670;37.596;2022-10-15T08:10:12;100421.03;;;10.62;60.62
51081;BME280;37130;55.670;37.596;2022-10-15T08:12:40;100426.06;;;10.70;60.01
51081;BME280;37130;55.670;37.596;2022-10-15T08:15:07;100426.78;;;10.75;60.53
51081;BME280;37130;55.670;37.596;2022-10-15T08:17:34;100424.88;;;10.79;60.15
51081;BME280;37130;55.670;37.596;2022-10-15T08:20:02;100427.25;;;10.86;60.64
51081;BME280;37130;55.670;37.596;2022-10-15T08:22:29;100426.44;;;10.84;60.36
51081;BME280;37130;55.670;37.596;2022-10-15T08:24:56;100430.75;;;10.87;60.07
51081;BME280;37130;55.670;37.596;2022-10-15T08:27:23;100432.28;;;10.94;59.88
51081;BME280;37130;55.670;37.596;2022-10-15T08:29:56;100434.25;;;10.89;59.52
51081;BME280;37130;55.670;37.596;2022-10-15T08:32:23;100434.25;;;10.89;59.80
51081;BME280;37130;55.670;37.596;2022-10-15T08:34:50;100434.34;;;10.86;60.04
51081;BME280;37130;55.670;37.596;2022-10-15T08:37:17;100427.53;;;10.79;59.93
51081;BME280;37130;55.670;37.596;2022-10-15T08:39:44;100436.06;;;10.87;59.61
51081;BME280;37130;55.670;37.596;2022-10-15T08:42:19;100435.88;;;10.93;59.79
51081;BME280;37130;55.670;37.596;2022-10-15T08:44:49;100441.91;;;10.96;59.43
51081;BME280;37130;55.670;37.596;2022-10-15T08:49:50;100440.19;;;10.95;59.31
51081;BME280;37130;55.670;37.596;2022-10-15T08:52:20;100439.72;;;11.08;59.33
51081;BME280;37130;55.670;37.596;2022-10-15T08:54:49;100443.63;;;11.23;59.30
51081;BME280;37130;55.670;37.596;2022-10-15T09:10:56;100440.81;;;11.27;58.62
51081;BME280;37130;55.670;37.596;2022-10-15T09:13:26;100433.47;;;11.34;58.11
51081;BME280;37130;55.670;37.596;2022-10-15T09:15:58;100437.75;;;11.38;58.27
51081;BME280;37130;55.670;37.596;2022-10-15T09:18:26;100433.47;;;11.34;57.84
51081;BME280;37130;55.670;37.596;2022-10-15T09:20:55;100436.09;;;11.35;57.85
51081;BME280;37130;55.670;37.596;2022-10-15T09:23:24;100440.16;;;11.44;58.09
51081;BME280;37130;55.670;37.596;2022-10-15T09:26:40;100437.41;;;11.47;57.43
51081;BME280;37130;55.670;37.596;2022-10-15T09:31:06;100434.50;;;11.77;57.35
51081;BME280;37130;55.670;37.596;2022-10-15T09:33:39;100437.72;;;11.85;57.27
51081;BME280;37130;55.670;37.596;2022-10-15T09:38:53;100431.28;;;11.69;57.11
51081;BME280;37130;55.670;37.596;2022-10-15T09:43:51;100438.75;;;11.35;57.23
51081;BME280;37130;55.670;37.596;2022-10-15T09:46:20;100435.78;;;11.19;57.40
51081;BME280;37130;55.670;37.596;2022-10-15T09:53:51;100441.06;;;10.96;57.66
51081;BME280;37130;55.670;37.596;2022-10-15T09:56:22;100441.75;;;11.01;57.36
51081;BME280;37130;55.670;37.596;2022-10-15T09:58:54;100439.69;;;11.09;57.41
51081;BME280;37130;55.670;37.596;2022-10-15T10:01:22;100435.94;;;11.15;57.38
51081;BME280;37130;55.670;37.596;2022-10-15T10:03:53;100441.72;;;11.26;57.72
51081;BME280;37130;55.670;37.596;2022-10-15T10:06:21;100437.06;;;11.33;57.54
51081;BME280;37130;55.670;37.596;2022-10-15T10:08:56;100433.72;;;11.28;57.33
51081;BME280;37130;55.670;37.596;2022-10-15T10:11:25;100441.09;;;11.19;56.99
51081;BME280;37130;55.670;37.596;2022-10-15T10:13:53;100430.66;;;11.15;57.30
51081;BME280;37130;55.670;37.596;2022-10-15T10:16:21;100437.84;;;11.11;56.78
51081;BME280;37130;55.670;37.596;2022-10-15T10:19:02;100432.47;;;11.13;56.66
51081;BME280;37130;55.670;37.596;2022-10-15T10:21:35;100434.22;;;11.14;56.83
51081;BME280;37130;55.670;37.596;2022-10-15T10:26:46;100433.00;;;10.99;56.53
51081;BME280;37130;55.670;37.596;2022-10-15T10:29:18;100444.84;;;10.89;57.00
51081;BME280;37130;55.670;37.596;2022-10-15T10:31:59;100442.88;;;10.94;56.85
51081;BME280;37130;55.670;37.596;2022-10-15T10:34:30;100443.47;;;11.02;57.12
51081;BME280;37130;55.670;37.596;2022-10-15T10:37:01;100440.25;;;10.94;57.07
51081;BME280;37130;55.670;37.596;2022-10-15T10:39:31;100447.63;;;10.84;56.86
51081;BME280;37130;55.670;37.596;2022-10-15T10:42:02;100438.84;;;10.84;56.98
51081;BME280;37130;55.670;37.596;2022-10-15T10:44:34;100446.84;;;10.82;56.70
51081;BME280;37130;55.670;37.596;2022-10-15T10:47:02;100442.44;;;10.81;56.88
51081;BME280;37130;55.670;37.596;2022-10-15T10:49:37;100445.81;;;10.86;57.29
51081;BME280;37130;55.670;37.596;2022-10-15T10:52:28;100441.16;;;10.93;56.88
51081;BME280;37130;55.670;37.596;2022-10-15T10:57:20;100436.34;;;11.04;56.80
51081;BME280;37130;55.670;37.596;2022-10-15T10:59:53;100436.09;;;11.10;56.83
51081;BME280;37130;55.670;37.596;2022-10-15T11:02:22;100440.31;;;11.16;56.89
51081;BME280;37130;55.670;37.596;2022-10-15T11:04:49;100435.78;;;11.19;56.82
51081;BME280;37130;55.670;37.596;2022-10-15T11:17:54;100430.81;;;11.34;56.15
51081;BME280;37130;55.670;37.596;2022-10-15T11:20:29;100438.16;;;11.51;56.72
51081;BME280;37130;55.670;37.596;2022-10-15T11:31:20;100431.72;;;11.80;56.10
51081;BME280;37130;55.670;37.596;2022-10-15T11:36:27;100427.09;;;11.85;56.04
51081;BME280;37130;55.670;37.596;2022-10-15T11:39:44;100427.97;;;11.85;55.98
51081;BME280;37130;55.670;37.596;2022-10-15T11:49:31;100425.84;;;11.72;55.90
51081;BME280;37130;55.670;37.596;2022-10-15T11:57:02;100424.91;;;11.73;55.98
51081;BME280;37130;55.670;37.596;2022-10-15T12:02:38;100419.91;;;11.65;56.31
51081;BME280;37130;55.670;37.596;2022-10-15T12:05:06;100423.81;;;11.78;56.14
51081;BME280;37130;55.670;37.596;2022-10-15T12:10:07;100422.50;;;11.90;55.82
51081;BME280;37130;55.670;37.596;2022-10-15T12:12:58;100424.78;;;11.99;55.76
51081;BME280;37130;55.670;37.596;2022-10-15T12:15:32;100415.78;;;12.03;55.61
51081;BME280;37130;55.670;37.596;2022-10-15T12:20:54;100426.28;;;12.06;55.78
51081;BME280;37130;55.670;37.596;2022-10-15T12:23:25;100423.47;;;12.10;55.82
51081;BME280;37130;55.670;37.596;2022-10-15T12:25:55;100410.84;;;12.16;55.71
51081;BME280;37130;55.670;37.596;2022-10-15T12:28:23;100421.19;;;12.22;55.72
51081;BME280;37130;55.670;37.596;2022-10-15T12:30:56;100422.13;;;12.21;55.62
51081;BME280;37130;55.670;37.596;2022-10-15T12:33:31;100419.72;;;12.15;55.62
51081;BME280;37130;55.670;37.596;2022-10-15T12:36:00;100413.84;;;12.07;55.60
51081;BME280;37130;55.670;37.596;2022-10-15T12:38:30;100413.13;;;12.03;55.53
51081;BME280;37130;55.670;37.596;2022-10-15T12:41:07;100406.03;;;12.04;55.61
51081;BME280;37130;55.670;37.596;2022-10-15T12:43:36;100419.47;;;11.99;55.34
51081;BME280;37130;55.670;37.596;2022-10-15T12:46:04;100414.16;;;11.99;55.44
51081;BME280;37130;55.670;37.596;2022-10-15T12:48:34;100409.91;;;11.95;55.31
51081;BME280;37130;55.670;37.596;2022-10-15T12:53:50;100419.28;;;11.82;55.31
51081;BME280;37130;55.670;37.596;2022-10-15T12:56:21;100417.22;;;11.67;55.81
51081;BME280;37130;55.670;37.596;2022-10-15T12:58:50;100419.59;;;11.51;55.83
51081;BME280;37130;55.670;37.596;2022-10-15T13:11:29;100420.44;;;10.79;56.40
51081;BME280;37130;55.670;37.596;2022-10-15T13:14:46;100422.72;;;10.65;56.04
51081;BME280;37130;55.670;37.596;2022-10-15T13:16:47;100421.53;;;10.48;56.04
51081;BME280;37130;55.670;37.596;2022-10-15T13:19:19;100413.06;;;10.37;55.99
51081;BME280;37130;55.670;37.596;2022-10-15T13:24:20;100417.25;;;10.16;56.02
51081;BME280;37130;55.670;37.596;2022-10-15T13:26:48;100421.94;;;10.08;56.49
51081;BME280;37130;55.670;37.596;2022-10-15T13:29:16;100420.41;;;10.01;56.33
51081;BME280;37130;55.670;37.596;2022-10-15T13:31:44;100419.53;;;10.00;56.29
51081;BME280;37130;55.670;37.596;2022-10-15T13:34:30;100414.41;;;9.96;56.32
51081;BME280;37130;55.670;37.596;2022-10-15T13:36:59;100414.66;;;9.88;56.31
51081;BME280;37130;55.670;37.596;2022-10-15T13:44:32;100407.94;;;9.76;57.13
51081;BME280;37130;55.670;37.596;2022-10-15T13:46:59;100409.88;;;9.71;56.82
51081;BME280;37130;55.670;37.596;2022-10-15T13:49:26;100407.31;;;9.68;56.86
51081;BME280;37130;55.670;37.596;2022-10-15T13:51:54;100418.09;;;9.62;56.87
51081;BME280;37130;55.670;37.596;2022-10-15T13:54:22;100416.41;;;9.59;56.73
51081;BME280;37130;55.670;37.596;2022-10-15T13:56:54;100420.84;;;9.59;56.78
51081;BME280;37130;55.670;37.596;2022-10-15T13:59:24;100423.56;;;9.56;57.07
51081;BME280;37130;55.670;37.596;2022-10-15T14:01:53;100425.44;;;9.52;57.64
51081;BME280;37130;55.670;37.596;2022-10-15T14:04:27;100433.47;;;9.49;57.54
51081;BME280;37130;55.670;37.596;2022-10-15T14:06:56;100432.75;;;9.42;57.10
51081;BME280;37130;55.670;37.596;2022-10-15T14:11:56;100438.38;;;9.32;57.65
51081;BME280;37130;55.670;37.596;2022-10-15T14:14:41;100442.06;;;9.26;58.32
51081;BME280;37130;55.670;37.596;2022-10-15T14:17:20;100437.81;;;9.20;58.06
51081;BME280;37130;55.670;37.596;2022-10-15T14:19:58;100439.69;;;9.17;58.11
51081;BME280;37130;55.670;37.596;2022-10-15T14:22:49;100438.03;;;9.13;58.05
51081;BME280;37130;55.670;37.596;2022-10-15T14:25:19;100440.81;;;9.08;57.97
51081;BME280;37130;55.670;37.596;2022-10-15T14:27:48;100440.91;;;9.04;58.42
51081;BME280;37130;55.670;37.596;2022-10-15T14:30:36;100444.56;;;8.99;58.43
51081;BME280;37130;55.670;37.596;2022-10-15T14:33:02;100442.97;;;8.94;58.26
51081;BME280;37130;55.670;37.596;2022-10-15T14:35:33;100443.94;;;8.90;58.36
51081;BME280;37130;55.670;37.596;2022-10-15T14:38:02;100453.75;;;8.86;58.75
51081;BME280;37130;55.670;37.596;2022-10-15T14:40:30;100444.16;;;8.82;58.65
51081;BME280;37130;55.670;37.596;2022-10-15T14:43:02;100449.56;;;8.77;59.02
51081;BME280;37130;55.670;37.596;2022-10-15T14:45:30;100446.19;;;8.72;59.48
51081;BME280;37130;55.670;37.596;2022-10-15T14:48:13;100447.19;;;8.67;59.30
51081;BME280;37130;55.670;37.596;2022-10-15T14:50:44;100448.19;;;8.63;59.37
51081;BME280;37130;55.670;37.596;2022-10-15T14:53:15;100452.69;;;8.59;59.62
51081;BME280;37130;55.670;37.596;2022-10-15T14:56:18;100450.97;;;8.56;59.76
51081;BME280;37130;55.670;37.596;2022-10-15T14:58:37;100451.91;;;8.54;59.76
51081;BME280;37130;55.670;37.596;2022-10-15T15:01:05;100452.81;;;8.54;59.91
51081;BME280;37130;55.670;37.596;2022-10-15T15:03:40;100457.94;;;8.61;60.39
51081;BME280;37130;55.670;37.596;2022-10-15T15:06:09;100462.25;;;8.65;60.21
51081;BME280;37130;55.670;37.596;2022-10-15T15:08:36;100461.31;;;8.66;60.82
51081;BME280;37130;55.670;37.596;2022-10-15T15:11:03;100457.72;;;8.68;60.51